sensor_id;sensor_type;location;lat;lon;timestamp;pressure;altitude;pressure_sealevel;temperature;humidity
22206;BME280;11272;50.104;8.754;2022-08-19T00:01:43;100113.00;;;24.39;51.92
22206;BME280;11272;50.104;8.754;2022-08-19T00:04:10;100114.00;;;24.38;51.68
22206;BME280;11272;50.104;8.754;2022-08-19T00:06:39;100126.69;;;24.37;51.92
22206;BME280;11272;50.104;8.754;2022-08-19T00:09:07;100124.97;;;24.36;51.63
22206;BME280;11272;50.104;8.754;2022-08-19T00:11:34;100119.53;;;24.36;51.77
22206;BME280;11272;50.104;8.754;2022-08-19T00:14:01;100108.84;;;24.35;51.74
22206;BME280;11272;50.104;8.754;2022-08-19T00:16:27;100112.41;;;24.35;51.79
22206;BME280;11272;50.104;8.754;2022-08-19T00:18:56;100106.13;;;24.35;51.91
22206;BME280;11272;50.104;8.754;2022-08-19T00:21:22;100107.09;;;24.33;51.87
22206;BME280;11272;50.104;8.754;2022-08-19T00:23:48;100107.38;;;24.30;51.87
22206;BME280;11272;50.104;8.754;2022-08-19T00:26:14;100099.34;;;24.29;52.10
22206;BME280;11272;50.104;8.754;2022-08-19T00:28:40;100103.91;;;24.28;52.26
22206;BME280;11272;50.104;8.754;2022-08-19T00:31:07;100093.16;;;24.27;52.34
22206;BME280;11272;50.104;8.754;2022-08-19T00:33:33;100087.75;;;24.27;52.16
22206;BME280;11272;50.104;8.754;2022-08-19T00:36:00;100095.16;;;24.25;52.37
22206;BME280;11272;50.104;8.754;2022-08-19T00:38:26;100094.31;;;24.24;52.25
22206;BME280;11272;50.104;8.754;2022-08-19T00:40:51;100088.00;;;24.24;52.35
22206;BME280;11272;50.104;8.754;2022-08-19T00:43:22;100085.31;;;24.24;52.57
22206;BME280;11272;50.104;8.754;2022-08-19T00:45:49;100084.56;;;24.22;52.29
22206;BME280;11272;50.104;8.754;2022-08-19T00:48:16;100081.97;;;24.20;52.59
22206;BME280;11272;50.104;8.754;2022-08-19T00:50:44;100083.69;;;24.21;52.44
22206;BME280;11272;50.104;8.754;2022-08-19T00:53:15;100079.25;;;24.20;52.60
22206;BME280;11272;50.104;8.754;2022-08-19T00:55:45;100080.09;;;24.21;52.47
22206;BME280;11272;50.104;8.754;2022-08-19T00:58:15;100081.13;;;24.20;52.59
22206;BME280;11272;50.104;8.754;2022-08-19T01:00:42;100067.66;;;24.18;52.57
22206;BME280;11272;50.104;8.754;2022-08-19T01:03:11;100060.53;;;24.17;52.58
22206;BME280;11272;50.104;8.754;2022-08-19T01:05:38;100066.19;;;24.14;52.73
22206;BME280;11272;50.104;8.754;2022-08-19T01:08:05;100065.44;;;24.12;52.96
22206;BME280;11272;50.104;8.754;2022-08-19T01:10:36;100054.69;;;24.11;52.87
22206;BME280;11272;50.104;8.754;2022-08-19T01:13:03;100062.13;;;24.09;52.79
22206;BME280;11272;50.104;8.754;2022-08-19T01:15:32;100051.28;;;24.09;53.16
22206;BME280;11272;50.104;8.754;2022-08-19T01:18:06;100062.84;;;24.11;52.92
22206;BME280;11272;50.104;8.754;2022-08-19T01:20:33;100059.25;;;24.10;53.11
22206;BME280;11272;50.104;8.754;2022-08-19T01:22:59;100060.13;;;24.11;52.95
22206;BME280;11272;50.104;8.754;2022-08-19T01:25:31;100061.84;;;24.12;52.84
22206;BME280;11272;50.104;8.754;2022-08-19T01:27:57;100071.84;;;24.11;53.18
22206;BME280;11272;50.104;8.754;2022-08-19T01:30:30;100068.41;;;24.09;53.13
22206;BME280;11272;50.104;8.754;2022-08-19T01:32:56;100065.81;;;24.08;53.33
22206;BME280;11272;50.104;8.754;2022-08-19T01:35:26;100062.25;;;24.07;53.37
22206;BME280;11272;50.104;8.754;2022-08-19T01:38:04;100049.53;;;24.08;53.35
22206;BME280;11272;50.104;8.754;2022-08-19T01:40:35;100046.72;;;24.09;53.12
22206;BME280;11272;50.104;8.754;2022-08-19T01:43:04;100060.41;;;24.08;53.29
22206;BME280;11272;50.104;8.754;2022-08-19T01:45:32;100059.78;;;24.04;53.46
22206;BME280;11272;50.104;8.754;2022-08-19T01:47:58;100055.34;;;24.03;53.26
22206;BME280;11272;50.104;8.754;2022-08-19T01:50:24;100062.75;;;24.01;53.50
22206;BME280;11272;50.104;8.754;2022-08-19T01:52:50;100052.00;;;24.00;53.59
22206;BME280;11272;50.104;8.754;2022-08-19T01:55:18;100060.03;;;24.01;53.49
22206;BME280;11272;50.104;8.754;2022-08-19T01:57:52;100059.28;;;23.99;53.40
22206;BME280;11272;50.104;8.754;2022-08-19T02:00:21;100062.16;;;23.98;53.74
22206;BME280;11272;50.104;8.754;2022-08-19T02:02:47;100070.28;;;23.98;53.39
22206;BME280;11272;50.104;8.754;2022-08-19T02:05:13;100063.13;;;23.97;53.45
22206;BME280;11272;50.104;8.754;2022-08-19T02:07:48;100062.28;;;23.96;53.64
22206;BME280;11272;50.104;8.754;2022-08-19T02:10:17;100056.97;;;23.95;53.66
22206;BME280;11272;50.104;8.754;2022-08-19T02:12:44;100059.06;;;23.91;53.97
22206;BME280;11272;50.104;8.754;2022-08-19T02:15:09;100059.31;;;23.88;53.79
22206;BME280;11272;50.104;8.754;2022-08-19T02:17:35;100066.72;;;23.86;54.01
22206;BME280;11272;50.104;8.754;2022-08-19T02:20:01;100071.28;;;23.85;54.00
22206;BME280;11272;50.104;8.754;2022-08-19T02:22:27;100085.84;;;23.84;54.03
22206;BME280;11272;50.104;8.754;2022-08-19T02:24:53;100084.97;;;23.84;54.12
22206;BME280;11272;50.104;8.754;2022-08-19T02:27:19;100084.25;;;23.82;54.31
22206;BME280;11272;50.104;8.754;2022-08-19T02:29:49;100081.78;;;23.79;54.39
22206;BME280;11272;50.104;8.754;2022-08-19T02:32:16;100084.50;;;23.79;54.39
22206;BME280;11272;50.104;8.754;2022-08-19T02:34:43;100099.03;;;23.78;54.81
22206;BME280;11272;50.104;8.754;2022-08-19T02:37:09;100092.75;;;23.77;54.33
22206;BME280;11272;50.104;8.754;2022-08-19T02:39:54;100090.91;;;23.78;54.62
22206;BME280;11272;50.104;8.754;2022-08-19T02:42:19;100094.63;;;23.77;54.48
22206;BME280;11272;50.104;8.754;2022-08-19T02:44:45;100089.19;;;23.77;54.74
22206;BME280;11272;50.104;8.754;2022-08-19T02:47:10;100081.06;;;23.77;54.75
22206;BME280;11272;50.104;8.754;2022-08-19T02:49:36;100080.31;;;23.75;54.67
22206;BME280;11272;50.104;8.754;2022-08-19T02:52:02;100086.72;;;23.74;54.74
22206;BME280;11272;50.104;8.754;2022-08-19T02:54:27;100085.00;;;23.73;55.03
22206;BME280;11272;50.104;8.754;2022-08-19T02:56:53;100093.13;;;23.73;54.87
22206;BME280;11272;50.104;8.754;2022-08-19T02:59:19;100102.13;;;23.73;55.01
22206;BME280;11272;50.104;8.754;2022-08-19T03:01:45;100094.00;;;23.73;55.25
22206;BME280;11272;50.104;8.754;2022-08-19T03:04:12;100086.72;;;23.74;55.07
22206;BME280;11272;50.104;8.754;2022-08-19T03:06:40;100084.28;;;23.71;55.30
22206;BME280;11272;50.104;8.754;2022-08-19T03:09:06;100080.06;;;23.67;55.34
22206;BME280;11272;50.104;8.754;2022-08-19T03:11:33;100080.22;;;23.65;55.43
22206;BME280;11272;50.104;8.754;2022-08-19T03:13:59;100087.00;;;23.60;55.50
22206;BME280;11272;50.104;8.754;2022-08-19T03:16:27;100089.81;;;23.58;55.77
22206;BME280;11272;50.104;8.754;2022-08-19T03:18:53;100100.78;;;23.57;55.62
22206;BME280;11272;50.104;8.754;2022-08-19T03:21:23;100096.38;;;23.56;55.71
22206;BME280;11272;50.104;8.754;2022-08-19T03:23:49;100097.56;;;23.52;56.00
22206;BME280;11272;50.104;8.754;2022-08-19T03:26:15;100094.38;;;23.46;56.12
22206;BME280;11272;50.104;8.754;2022-08-19T03:28:42;100099.03;;;23.44;56.11
22206;BME280;11272;50.104;8.754;2022-08-19T03:31:13;100104.69;;;23.41;56.54
22206;BME280;11272;50.104;8.754;2022-08-19T03:33:39;100109.25;;;23.41;56.60
22206;BME280;11272;50.104;8.754;2022-08-19T03:36:12;100112.94;;;23.40;56.68
22206;BME280;11272;50.104;8.754;2022-08-19T03:38:41;100103.97;;;23.39;56.60
22206;BME280;11272;50.104;8.754;2022-08-19T03:41:09;100097.53;;;23.40;56.88
22206;BME280;11272;50.104;8.754;2022-08-19T03:43:36;100101.38;;;23.38;56.89
22206;BME280;11272;50.104;8.754;2022-08-19T03:46:04;100099.75;;;23.35;57.19
22206;BME280;11272;50.104;8.754;2022-08-19T03:48:31;100109.97;;;23.32;57.31
22206;BME280;11272;50.104;8.754;2022-08-19T03:50:57;100107.38;;;23.30;57.30
22206;BME280;11272;50.104;8.754;2022-08-19T03:53:25;100101.97;;;23.30;57.41
22206;BME280;11272;50.104;8.754;2022-08-19T03:55:51;100102.09;;;23.29;57.33
22206;BME280;11272;50.104;8.754;2022-08-19T03:58:16;100100.75;;;23.23;57.61
22206;BME280;11272;50.104;8.754;2022-08-19T04:00:42;100104.66;;;23.19;57.70
22206;BME280;11272;50.104;8.754;2022-08-19T04:03:08;100112.06;;;23.17;57.92
22206;BME280;11272;50.104;8.754;2022-08-19T04:05:33;100107.50;;;23.18;58.13
22206;BME280;11272;50.104;8.754;2022-08-19T04:07:58;100116.63;;;23.17;58.08
22206;BME280;11272;50.104;8.754;2022-08-19T04:10:25;100104.03;;;23.16;58.14
22206;BME280;11272;50.104;8.754;2022-08-19T04:12:50;100118.81;;;23.12;58.44
22206;BME280;11272;50.104;8.754;2022-08-19T04:15:15;100120.66;;;23.11;58.28
22206;BME280;11272;50.104;8.754;2022-08-19T04:17:41;100113.53;;;23.10;58.54
22206;BME280;11272;50.104;8.754;2022-08-19T04:20:07;100122.41;;;23.12;58.43
22206;BME280;11272;50.104;8.754;2022-08-19T04:22:32;100121.44;;;23.13;58.54
22206;BME280;11272;50.104;8.754;2022-08-19T04:24:57;100115.75;;;23.16;58.42
22206;BME280;11272;50.104;8.754;2022-08-19T04:27:23;100115.88;;;23.15;58.52
22206;BME280;11272;50.104;8.754;2022-08-19T04:29:48;100118.47;;;23.16;58.38
22206;BME280;11272;50.104;8.754;2022-08-19T04:32:14;100109.56;;;23.14;58.39
22206;BME280;11272;50.104;8.754;2022-08-19T04:34:40;100113.16;;;23.15;58.61
22206;BME280;11272;50.104;8.754;2022-08-19T04:37:08;100111.31;;;23.15;58.34
22206;BME280;11272;50.104;8.754;2022-08-19T04:39:37;100113.91;;;23.17;58.61
22206;BME280;11272;50.104;8.754;2022-08-19T04:42:21;100122.91;;;23.17;58.32
22206;BME280;11272;50.104;8.754;2022-08-19T04:45:11;100122.91;;;23.17;58.42
22206;BME280;11272;50.104;8.754;2022-08-19T04:47:38;100135.47;;;23.18;58.38
22206;BME280;11272;50.104;8.754;2022-08-19T04:50:06;100131.03;;;23.17;58.38
22206;BME280;11272;50.104;8.754;2022-08-19T04:52:31;100124.75;;;23.17;58.48
22206;BME280;11272;50.104;8.754;2022-08-19T04:54:57;100128.44;;;23.16;58.23
22206;BME280;11272;50.104;8.754;2022-08-19T04:57:23;100139.28;;;23.16;58.25
22206;BME280;11272;50.104;8.754;2022-08-19T04:59:48;100131.13;;;23.16;58.41
22206;BME280;11272;50.104;8.754;2022-08-19T05:02:14;100127.47;;;23.17;58.26
22206;BME280;11272;50.104;8.754;2022-08-19T05:04:39;100130.88;;;23.19;58.22
22206;BME280;11272;50.104;8.754;2022-08-19T05:07:07;100126.22;;;23.21;58.19
22206;BME280;11272;50.104;8.754;2022-08-19T05:09:32;100134.97;;;23.24;58.03
22206;BME280;11272;50.104;8.754;2022-08-19T05:11:58;100121.19;;;23.27;58.12
22206;BME280;11272;50.104;8.754;2022-08-19T05:14:23;100127.09;;;23.32;57.88
22206;BME280;11272;50.104;8.754;2022-08-19T05:16:48;100126.63;;;23.38;57.93
22206;BME280;11272;50.104;8.754;2022-08-19T05:19:14;100125.38;;;23.42;57.68
22206;BME280;11272;50.104;8.754;2022-08-19T05:21:59;100132.22;;;23.48;57.69
22206;BME280;11272;50.104;8.754;2022-08-19T05:24:43;100130.09;;;23.52;57.60
22206;BME280;11272;50.104;8.754;2022-08-19T05:27:08;100140.72;;;23.55;57.38
22206;BME280;11272;50.104;8.754;2022-08-19T05:29:34;100134.94;;;23.59;57.25
22206;BME280;11272;50.104;8.754;2022-08-19T05:32:01;100133.81;;;23.62;57.13
22206;BME280;11272;50.104;8.754;2022-08-19T05:34:30;100141.72;;;23.65;57.28
22206;BME280;11272;50.104;8.754;2022-08-19T05:36:58;100140.72;;;23.66;57.17
22206;BME280;11272;50.104;8.754;2022-08-19T05:39:27;100141.44;;;23.68;56.90
22206;BME280;11272;50.104;8.754;2022-08-19T05:41:59;100139.38;;;23.71;57.09
22206;BME280;11272;50.104;8.754;2022-08-19T05:44:27;100142.69;;;23.75;56.91
22206;BME280;11272;50.104;8.754;2022-08-19T05:46:57;100139.50;;;23.81;56.80
22206;BME280;11272;50.104;8.754;2022-08-19T05:49:23;100136.13;;;23.88;56.73
22206;BME280;11272;50.104;8.754;2022-08-19T05:51:51;100139.09;;;23.97;56.53
22206;BME280;11272;50.104;8.754;2022-08-19T05:54:17;100139.31;;;24.05;56.42
22206;BME280;11272;50.104;8.754;2022-08-19T05:56:43;100142.41;;;24.11;56.19
22206;BME280;11272;50.104;8.754;2022-08-19T05:59:10;100146.97;;;24.22;55.90
22206;BME280;11272;50.104;8.754;2022-08-19T06:01:38;100148.91;;;24.31;55.61
22206;BME280;11272;50.104;8.754;2022-08-19T06:04:04;100159.91;;;24.41;55.25
22206;BME280;11272;50.104;8.754;2022-08-19T06:06:29;100164.81;;;24.47;55.32
22206;BME280;11272;50.104;8.754;2022-08-19T06:08:54;100168.03;;;24.52;55.28
22206;BME280;11272;50.104;8.754;2022-08-19T06:14:06;100171.81;;;24.60;54.84
22206;BME280;11272;50.104;8.754;2022-08-19T06:16:34;100172.41;;;24.64;54.84
22206;BME280;11272;50.104;8.754;2022-08-19T06:19:05;100172.88;;;24.69;54.29
22206;BME280;11272;50.104;8.754;2022-08-19T06:21:32;100187.69;;;24.76;54.17
22206;BME280;11272;50.104;8.754;2022-08-19T06:23:58;100192.31;;;24.85;54.19
22206;BME280;11272;50.104;8.754;2022-08-19T06:26:24;100191.84;;;24.91;53.72
22206;BME280;11272;50.104;8.754;2022-08-19T06:28:50;100195.03;;;24.96;53.55
22206;BME280;11272;50.104;8.754;2022-08-19T06:31:27;100196.38;;;25.02;53.57
22206;BME280;11272;50.104;8.754;2022-08-19T06:33:53;100204.88;;;25.08;53.62
22206;BME280;11272;50.104;8.754;2022-08-19T06:36:27;100188.91;;;25.15;53.33
22206;BME280;11272;50.104;8.754;2022-08-19T06:38:55;100212.16;;;25.29;52.99
22206;BME280;11272;50.104;8.754;2022-08-19T06:41:23;100215.72;;;25.61;52.87
22206;BME280;11272;50.104;8.754;2022-08-19T06:43:48;100215.19;;;25.97;51.87
22206;BME280;11272;50.104;8.754;2022-08-19T06:46:16;100214.50;;;26.35;51.46
22206;BME280;11272;50.104;8.754;2022-08-19T06:48:42;100209.28;;;26.72;50.76
22206;BME280;11272;50.104;8.754;2022-08-19T06:51:07;100210.34;;;27.10;50.10
22206;BME280;11272;50.104;8.754;2022-08-19T06:53:33;100200.13;;;27.41;49.49
22206;BME280;11272;50.104;8.754;2022-08-19T06:56:00;100211.47;;;27.65;48.68
22206;BME280;11272;50.104;8.754;2022-08-19T06:58:31;100216.84;;;27.84;47.98
22206;BME280;11272;50.104;8.754;2022-08-19T07:01:01;100211.78;;;27.99;47.55
22206;BME280;11272;50.104;8.754;2022-08-19T07:03:32;100209.00;;;28.09;47.17
22206;BME280;11272;50.104;8.754;2022-08-19T07:06:12;100206.06;;;28.29;46.68
22206;BME280;11272;50.104;8.754;2022-08-19T07:08:39;100207.53;;;28.51;46.33
22206;BME280;11272;50.104;8.754;2022-08-19T07:11:07;100205.84;;;28.68;45.73
22206;BME280;11272;50.104;8.754;2022-08-19T07:13:34;100208.78;;;28.84;45.63
22206;BME280;11272;50.104;8.754;2022-08-19T07:16:11;100219.22;;;29.06;45.14
22206;BME280;11272;50.104;8.754;2022-08-19T07:18:38;100216.34;;;29.25;44.76
22206;BME280;11272;50.104;8.754;2022-08-19T07:21:11;100214.47;;;29.44;44.15
22206;BME280;11272;50.104;8.754;2022-08-19T07:23:41;100221.78;;;29.61;43.93
22206;BME280;11272;50.104;8.754;2022-08-19T07:26:31;100223.50;;;29.88;43.31
22206;BME280;11272;50.104;8.754;2022-08-19T07:28:58;100216.41;;;29.95;43.13
22206;BME280;11272;50.104;8.754;2022-08-19T07:31:27;100221.44;;;30.07;42.75
22206;BME280;11272;50.104;8.754;2022-08-19T07:33:55;100220.09;;;30.11;42.46
22206;BME280;11272;50.104;8.754;2022-08-19T07:36:26;100223.13;;;30.08;42.23
22206;BME280;11272;50.104;8.754;2022-08-19T07:38:58;100221.19;;;29.93;41.99
22206;BME280;11272;50.104;8.754;2022-08-19T07:41:26;100220.28;;;29.66;42.10
22206;BME280;11272;50.104;8.754;2022-08-19T07:43:54;100221.03;;;29.51;42.39
22206;BME280;11272;50.104;8.754;2022-08-19T07:46:20;100228.34;;;29.42;42.74
22206;BME280;11272;50.104;8.754;2022-08-19T07:48:48;100219.88;;;29.36;42.54
22206;BME280;11272;50.104;8.754;2022-08-19T07:51:20;100223.63;;;29.52;42.95
22206;BME280;11272;50.104;8.754;2022-08-19T07:53:48;100219.81;;;29.71;42.11
22206;BME280;11272;50.104;8.754;2022-08-19T07:56:19;100221.59;;;29.80;42.11
22206;BME280;11272;50.104;8.754;2022-08-19T07:58:46;100222.91;;;29.94;41.89
22206;BME280;11272;50.104;8.754;2022-08-19T08:01:15;100224.59;;;30.21;41.57
22206;BME280;11272;50.104;8.754;2022-08-19T08:03:41;100225.66;;;30.28;40.89
22206;BME280;11272;50.104;8.754;2022-08-19T08:06:25;100233.47;;;30.48;41.17
22206;BME280;11272;50.104;8.754;2022-08-19T08:09:09;100233.19;;;30.68;40.36
22206;BME280;11272;50.104;8.754;2022-08-19T08:11:53;100225.25;;;31.15;39.97
22206;BME280;11272;50.104;8.754;2022-08-19T08:14:26;100225.78;;;31.75;39.19
22206;BME280;11272;50.104;8.754;2022-08-19T08:16:52;100230.81;;;32.35;38.07
22206;BME280;11272;50.104;8.754;2022-08-19T08:19:20;100220.13;;;32.48;37.04
22206;BME280;11272;50.104;8.754;2022-08-19T08:21:47;100221.38;;;32.37;37.17
22206;BME280;11272;50.104;8.754;2022-08-19T08:24:13;100223.31;;;32.21;36.88
22206;BME280;11272;50.104;8.754;2022-08-19T08:26:39;100229.16;;;32.09;37.04
22206;BME280;11272;50.104;8.754;2022-08-19T08:29:05;100224.84;;;32.07;37.05
22206;BME280;11272;50.104;8.754;2022-08-19T08:31:33;100226.25;;;31.95;37.11
22206;BME280;11272;50.104;8.754;2022-08-19T08:33:59;100228.69;;;31.82;37.21
22206;BME280;11272;50.104;8.754;2022-08-19T08:36:25;100228.38;;;31.68;37.09
22206;BME280;11272;50.104;8.754;2022-08-19T08:38:50;100223.56;;;31.46;37.15
22206;BME280;11272;50.104;8.754;2022-08-19T08:41:37;100211.88;;;31.76;37.46
22206;BME280;11272;50.104;8.754;2022-08-19T08:44:05;100221.81;;;31.86;36.99
22206;BME280;11272;50.104;8.754;2022-08-19T08:46:39;100220.06;;;32.01;36.94
22206;BME280;11272;50.104;8.754;2022-08-19T08:52:36;100227.56;;;32.70;35.76
22206;BME280;11272;50.104;8.754;2022-08-19T08:55:05;100222.94;;;32.63;35.61
22206;BME280;11272;50.104;8.754;2022-08-19T09:00:07;100210.56;;;32.28;35.20
22206;BME280;11272;50.104;8.754;2022-08-19T09:02:33;100213.75;;;31.92;35.57
22206;BME280;11272;50.104;8.754;2022-08-19T09:04:58;100225.28;;;31.55;36.05
22206;BME280;11272;50.104;8.754;2022-08-19T09:07:39;100215.00;;;31.25;36.40
22206;BME280;11272;50.104;8.754;2022-08-19T09:15:49;100206.06;;;31.39;36.63
22206;BME280;11272;50.104;8.754;2022-08-19T09:18:17;100209.91;;;32.09;35.88
22206;BME280;11272;50.104;8.754;2022-08-19T09:20:43;100204.09;;;32.51;35.59
22206;BME280;11272;50.104;8.754;2022-08-19T09:23:08;100212.75;;;33.02;34.68
22206;BME280;11272;50.104;8.754;2022-08-19T09:25:35;100216.41;;;33.63;34.16
22206;BME280;11272;50.104;8.754;2022-08-19T09:28:01;100212.44;;;34.32;32.86
22206;BME280;11272;50.104;8.754;2022-08-19T09:30:32;100212.41;;;34.47;32.22
22206;BME280;11272;50.104;8.754;2022-08-19T09:32:59;100214.25;;;34.40;32.03
22206;BME280;11272;50.104;8.754;2022-08-19T09:35:26;100204.31;;;34.60;32.04
22206;BME280;11272;50.104;8.754;2022-08-19T09:37:54;100208.84;;;34.82;31.41
22206;BME280;11272;50.104;8.754;2022-08-19T09:40:20;100207.72;;;35.34;30.50
22206;BME280;11272;50.104;8.754;2022-08-19T09:42:46;100198.63;;;35.89;30.31
22206;BME280;11272;50.104;8.754;2022-08-19T09:45:13;100189.84;;;35.85;29.71
22206;BME280;11272;50.104;8.754;2022-08-19T09:47:39;100199.03;;;35.65;29.82
22206;BME280;11272;50.104;8.754;2022-08-19T09:50:06;100191.53;;;35.31;29.60
22206;BME280;11272;50.104;8.754;2022-08-19T09:52:33;100205.31;;;34.88;30.39
22206;BME280;11272;50.104;8.754;2022-08-19T09:54:59;100201.22;;;35.05;30.42
22206;BME280;11272;50.104;8.754;2022-08-19T09:57:24;100199.56;;;35.75;29.82
22206;BME280;11272;50.104;8.754;2022-08-19T09:59:50;100195.75;;;36.45;28.50
22206;BME280;11272;50.104;8.754;2022-08-19T10:02:15;100192.19;;;37.12;28.33
22206;BME280;11272;50.104;8.754;2022-08-19T10:04:41;100192.88;;;37.60;27.76
22206;BME280;11272;50.104;8.754;2022-08-19T10:07:25;100199.03;;;37.29;27.98
22206;BME280;11272;50.104;8.754;2022-08-19T10:09:50;100199.09;;;37.55;27.75
22206;BME280;11272;50.104;8.754;2022-08-19T10:12:15;100199.88;;;37.95;27.16
22206;BME280;11272;50.104;8.754;2022-08-19T10:14:41;100183.75;;;38.43;26.85
22206;BME280;11272;50.104;8.754;2022-08-19T10:17:07;100188.41;;;39.00;26.21
22206;BME280;11272;50.104;8.754;2022-08-19T10:19:33;100188.63;;;39.37;25.62
22206;BME280;11272;50.104;8.754;2022-08-19T10:22:05;100187.88;;;39.16;25.33
22206;BME280;11272;50.104;8.754;2022-08-19T10:24:33;100182.59;;;38.64;25.76
22206;BME280;11272;50.104;8.754;2022-08-19T10:27:00;100186.91;;;38.60;25.73
22206;BME280;11272;50.104;8.754;2022-08-19T10:29:29;100180.72;;;39.02;25.51
22206;BME280;11272;50.104;8.754;2022-08-19T10:31:55;100179.84;;;39.02;25.26
22206;BME280;11272;50.104;8.754;2022-08-19T10:34:21;100177.06;;;38.64;25.13
22206;BME280;11272;50.104;8.754;2022-08-19T10:36:48;100182.81;;;37.98;25.86
22206;BME280;11272;50.104;8.754;2022-08-19T10:39:13;100188.78;;;37.29;26.35
22206;BME280;11272;50.104;8.754;2022-08-19T10:41:39;100176.13;;;36.81;27.22
22206;BME280;11272;50.104;8.754;2022-08-19T10:44:08;100184.06;;;36.43;27.26
22206;BME280;11272;50.104;8.754;2022-08-19T10:46:39;100176.91;;;36.20;27.40
22206;BME280;11272;50.104;8.754;2022-08-19T10:49:09;100167.78;;;36.74;27.51
22206;BME280;11272;50.104;8.754;2022-08-19T10:51:37;100165.16;;;37.60;26.77
22206;BME280;11272;50.104;8.754;2022-08-19T10:54:22;100170.28;;;38.47;25.96
22206;BME280;11272;50.104;8.754;2022-08-19T10:56:48;100166.66;;;38.53;25.65
22206;BME280;11272;50.104;8.754;2022-08-19T10:59:17;100153.22;;;38.37;25.21
22206;BME280;11272;50.104;8.754;2022-08-19T11:01:45;100152.50;;;37.97;25.38
22206;BME280;11272;50.104;8.754;2022-08-19T11:04:11;100155.09;;;37.45;25.54
22206;BME280;11272;50.104;8.754;2022-08-19T11:06:40;100159.72;;;36.86;26.50
22206;BME280;11272;50.104;8.754;2022-08-19T11:09:07;100163.81;;;36.42;26.94
22206;BME280;11272;50.104;8.754;2022-08-19T11:11:32;100158.59;;;36.19;27.52
22206;BME280;11272;50.104;8.754;2022-08-19T11:14:00;100153.50;;;36.16;27.66
22206;BME280;11272;50.104;8.754;2022-08-19T11:16:26;100148.22;;;36.82;27.18
22206;BME280;11272;50.104;8.754;2022-08-19T11:18:57;100130.38;;;37.57;26.04
22206;BME280;11272;50.104;8.754;2022-08-19T11:21:32;100117.63;;;38.27;25.43
22206;BME280;11272;50.104;8.754;2022-08-19T11:24:00;100107.66;;;38.95;24.86
22206;BME280;11272;50.104;8.754;2022-08-19T11:26:27;100099.59;;;39.12;24.20
22206;BME280;11272;50.104;8.754;2022-08-19T11:28:53;100108.75;;;38.88;24.13
22206;BME280;11272;50.104;8.754;2022-08-19T11:31:25;100096.31;;;39.22;23.73
22206;BME280;11272;50.104;8.754;2022-08-19T11:33:51;100111.28;;;39.70;23.42
22206;BME280;11272;50.104;8.754;2022-08-19T11:36:17;100100.28;;;39.82;22.80
22206;BME280;11272;50.104;8.754;2022-08-19T11:38:45;100106.97;;;39.74;22.89
22206;BME280;11272;50.104;8.754;2022-08-19T11:41:13;100108.38;;;40.02;22.84
22206;BME280;11272;50.104;8.754;2022-08-19T11:43:39;100112.94;;;40.81;22.44
22206;BME280;11272;50.104;8.754;2022-08-19T11:46:06;100102.88;;;41.44;21.43
22206;BME280;11272;50.104;8.754;2022-08-19T11:48:33;100105.72;;;41.03;21.71
22206;BME280;11272;50.104;8.754;2022-08-19T11:50:59;100103.84;;;40.25;22.06
22206;BME280;11272;50.104;8.754;2022-08-19T11:53:24;100103.88;;;39.39;23.13
22206;BME280;11272;50.104;8.754;2022-08-19T11:55:52;100106.13;;;38.68;23.73
22206;BME280;11272;50.104;8.754;2022-08-19T11:58:21;100107.50;;;38.01;24.29
22206;BME280;11272;50.104;8.754;2022-08-19T12:00:46;100114.19;;;37.34;24.75
22206;BME280;11272;50.104;8.754;2022-08-19T12:03:12;100102.88;;;37.09;24.88
22206;BME280;11272;50.104;8.754;2022-08-19T12:05:39;100088.31;;;37.80;24.53
22206;BME280;11272;50.104;8.754;2022-08-19T12:08:05;100089.91;;;38.65;23.81
22206;BME280;11272;50.104;8.754;2022-08-19T12:10:32;100098.72;;;39.43;23.24
22206;BME280;11272;50.104;8.754;2022-08-19T12:12:57;100098.09;;;39.41;22.86
22206;BME280;11272;50.104;8.754;2022-08-19T12:15:23;100100.13;;;38.71;23.07
22206;BME280;11272;50.104;8.754;2022-08-19T12:17:48;100096.78;;;38.11;23.85
22206;BME280;11272;50.104;8.754;2022-08-19T12:20:13;100095.84;;;37.66;24.15
22206;BME280;11272;50.104;8.754;2022-08-19T12:22:40;100090.50;;;37.19;24.74
22206;BME280;11272;50.104;8.754;2022-08-19T12:25:08;100094.03;;;36.53;25.26
22206;BME280;11272;50.104;8.754;2022-08-19T12:27:34;100088.53;;;36.12;25.68
22206;BME280;11272;50.104;8.754;2022-08-19T12:30:01;100086.50;;;36.34;25.71
22206;BME280;11272;50.104;8.754;2022-08-19T12:32:27;100077.53;;;37.19;24.98
22206;BME280;11272;50.104;8.754;2022-08-19T12:34:53;100064.50;;;38.23;24.07
22206;BME280;11272;50.104;8.754;2022-08-19T12:37:19;100072.97;;;39.04;22.93
22206;BME280;11272;50.104;8.754;2022-08-19T12:39:44;100068.22;;;39.36;22.48
22206;BME280;11272;50.104;8.754;2022-08-19T12:42:11;100074.06;;;39.22;22.72
22206;BME280;11272;50.104;8.754;2022-08-19T12:44:38;100064.00;;;39.02;22.38
22206;BME280;11272;50.104;8.754;2022-08-19T12:47:05;100071.50;;;39.27;22.16
22206;BME280;11272;50.104;8.754;2022-08-19T12:49:32;100064.13;;;39.75;21.67
22206;BME280;11272;50.104;8.754;2022-08-19T12:52:00;100057.00;;;40.34;21.27
22206;BME280;11272;50.104;8.754;2022-08-19T12:54:26;100059.41;;;40.90;20.49
22206;BME280;11272;50.104;8.754;2022-08-19T12:56:52;100062.25;;;41.13;19.89
22206;BME280;11272;50.104;8.754;2022-08-19T12:59:17;100064.13;;;40.90;20.19
22206;BME280;11272;50.104;8.754;2022-08-19T13:01:44;100065.91;;;40.72;20.54
22206;BME280;11272;50.104;8.754;2022-08-19T13:04:10;100061.06;;;40.20;20.50
22206;BME280;11272;50.104;8.754;2022-08-19T13:06:36;100066.09;;;39.75;20.76
22206;BME280;11272;50.104;8.754;2022-08-19T13:09:03;100062.97;;;39.65;20.75